Latest Weather Observations for Friendly Beaches

IDT60801

Issued at 8:05 pm EST Monday 28 July 2014 (issued every 30 minutes, with the page automatically refreshed every 10 minutes)

About weather observations | Map of weather stations | Latest weather observations for TAS | Other Formats
Station Details ID: 092114 Name: FRIENDLY BEACHES Lat: -42.00 Lon: 148.28 Height: 55.0 m
Data from the previous 72 hours. | See also: Recent months at Friendly Beaches
Date/Time
EST
Temp
°C
App
Temp
°C
Dew
Point
Rel
Hum
%
Delta-T
°C
Wind Press
QNH
hPa
Press
MSL
hPa
Rain
since 9 am
mm
Dir
 
Spd
km/h
Gust
km/h
Spd
kts
Gust
kts
28/08:00pm 13.5 9.4 4.4 54 4.2 NW 15 33 8 18 1003.3 1003.3 0.0
28/07:30pm 13.0 8.5 4.2 55 4.0 NW 17 41 9 22 1003.1 - 0.0
28/07:00pm 10.7 8.2 3.7 62 3.1 N 6 11 3 6 1003.2 1003.2 0.0
28/06:30pm 12.0 9.4 3.3 55 3.9 S 6 9 3 5 1003.4 - 0.0
28/06:00pm 13.1 9.3 3.7 53 4.3 NW 13 28 7 15 1003.1 1003.1 0.0
28/05:30pm 13.4 8.4 3.8 52 4.4 NW 19 33 10 18 1002.5 - 0.0
28/05:00pm 13.5 9.6 3.6 51 4.5 WNW 13 26 7 14 1002.7 1002.7 0.0
28/04:30pm 14.4 8.8 3.2 47 5.1 WNW 22 48 12 26 1003.0 - 0.0
28/04:00pm 14.6 10.2 4.9 52 4.6 WNW 17 35 9 19 1003.4 1003.4 0.0
28/03:30pm 15.0 9.6 4.4 49 4.9 WNW 22 39 12 21 1003.4 - 0.0
28/03:00pm 15.5 10.9 6.5 55 4.4 WNW 20 37 11 20 1003.8 1003.8 0.0
28/02:30pm 15.3 10.6 7.6 60 3.8 WNW 22 41 12 22 1003.9 - 0.0
28/02:00pm 15.5 11.1 7.3 58 4.1 WNW 20 43 11 23 1003.8 1003.8 0.0
28/01:30pm 15.3 10.9 7.3 59 4.0 WNW 20 43 11 23 1004.2 - 0.0
28/01:00pm 15.4 11.2 7.4 59 4.0 WNW 19 35 10 19 1004.6 1004.6 0.0
28/12:30pm 15.7 8.6 6.2 53 4.6 WNW 33 59 18 32 1005.0 - 0.0
28/12:00pm 15.9 9.0 4.6 47 5.3 WNW 30 57 16 31 1005.5 1005.5 0.0
28/11:30am 16.2 11.7 4.3 45 5.6 WNW 17 35 9 19 1005.6 - 0.0
28/11:00am 15.7 11.2 4.1 46 5.4 NW 17 44 9 24 1006.4 1006.5 0.0
28/10:30am 14.9 10.5 4.6 50 4.8 NW 17 33 9 18 1007.1 - 0.0
28/10:00am 14.3 9.4 4.9 53 4.4 NNW 20 44 11 24 1006.9 1007.0 0.0
28/09:30am 14.4 11.9 6.5 59 3.8 NW 9 32 5 17 1007.2 - 0.0
28/09:00am 13.1 11.2 7.5 69 2.7 N 7 17 4 9 1007.4 1007.5 0.2
28/08:30am 13.3 11.4 7.7 69 2.8 NW 7 22 4 12 1007.6 - 0.2
28/08:00am 12.8 11.8 7.5 70 2.6 N 2 6 1 3 1007.7 1007.8 0.2
28/07:30am 12.7 10.9 7.2 69 2.7 NW 6 9 3 5 1007.9 - 0.2
28/07:00am 13.4 11.0 7.2 66 3.0 NNW 9 19 5 10 1008.1 1008.2 0.2
28/06:30am 12.9 10.9 6.9 67 2.9 NNW 7 13 4 7 1008.2 - 0.2
28/06:00am 12.9 10.8 6.7 66 3.0 NNW 7 15 4 8 1008.0 1008.1 0.2
28/05:30am 12.1 9.4 7.2 72 2.4 N 11 20 6 11 1008.0 - 0.2
28/05:00am 11.0 9.0 7.3 78 1.8 N 7 11 4 6 1008.5 1008.6 0.2
28/04:30am 10.7 9.3 7.2 79 1.7 N 4 7 2 4 1008.7 - 0.2
28/04:00am 11.5 8.6 8.0 79 1.7 N 13 20 7 11 1009.3 1009.4 0.2
28/03:30am 11.6 7.5 7.9 78 1.8 N 19 26 10 14 1009.4 - 0.2
28/03:00am 12.4 9.3 7.1 70 2.6 NNW 13 20 7 11 1009.8 1009.9 0.2
28/02:30am 12.4 9.4 7.7 73 2.3 NNW 13 24 7 13 1010.0 - 0.2
28/02:00am 12.4 8.9 7.3 71 2.5 NNW 15 24 8 13 1010.5 1010.6 0.2
28/01:30am 12.6 9.8 6.9 68 2.7 NW 11 19 6 10 1010.8 - 0.2
28/01:00am 12.5 10.1 6.8 68 2.7 NW 9 17 5 9 1010.8 1010.9 0.2
28/12:30am 12.2 10.2 6.9 70 2.5 NNW 7 17 4 9 1011.0 - 0.2
28/12:00am 12.9 10.1 6.9 67 2.9 WNW 11 28 6 15 1011.6 1011.7 0.2
 
Date/Time
EST
Temp
°C
App
Temp
°C
Dew
Point
Rel
Hum
%
Delta-T
°C
Wind Press
QNH
hPa
Press
MSL
hPa
Rain
since 9 am
mm
Dir
 
Spd
km/h
Gust
km/h
Spd
kts
Gust
kts
27/11:30pm 12.9 9.7 6.9 67 2.9 NW 13 28 7 15 1012.0 - 0.2
27/11:00pm 12.4 10.0 6.9 69 2.6 NW 9 17 5 9 1012.1 1012.2 0.2
27/10:30pm 12.3 9.9 7.0 70 2.6 NNW 9 17 5 9 1012.7 - 0.2
27/10:00pm 12.2 9.8 6.9 70 2.5 NW 9 19 5 10 1013.2 1013.3 0.2
27/09:30pm 11.9 9.7 6.4 69 2.6 NNW 7 15 4 8 1013.4 - 0.2
27/09:00pm 11.5 8.5 6.0 69 2.6 N 11 15 6 8 1013.6 1013.7 0.2
27/08:30pm 10.9 7.9 5.9 71 2.3 NNW 11 19 6 10 1013.7 - 0.2
27/08:00pm 10.8 8.5 5.6 70 2.4 NNW 7 13 4 7 1013.7 1013.8 0.2
27/07:30pm 11.2 8.5 5.7 69 2.6 NNW 9 17 5 9 1014.0 - 0.2
27/07:00pm 11.1 8.7 5.2 67 2.7 NNW 7 13 4 7 1014.3 1014.4 0.2
27/06:30pm 10.7 8.2 4.8 67 2.7 N 7 13 4 7 1014.4 - 0.2
27/06:00pm 11.7 8.9 5.1 64 3.0 NW 9 19 5 10 1014.7 1014.8 0.2
27/05:30pm 12.2 8.6 5.1 62 3.3 NW 13 24 7 13 1014.6 - 0.2
27/05:00pm 11.7 9.2 6.4 70 2.5 NW 9 13 5 7 1014.7 1014.8 0.2
27/04:30pm 12.3 10.2 6.6 68 2.7 WNW 7 15 4 8 1014.5 - 0.2
27/04:00pm 12.7 9.0 6.3 65 3.0 NW 15 24 8 13 1014.3 1014.4 0.2
27/03:30pm 13.1 9.7 6.0 62 3.4 WNW 13 26 7 14 1014.7 - 0.2
27/03:00pm 13.5 10.9 6.1 61 3.5 WNW 9 17 5 9 1015.2 1015.3 0.2
27/02:30pm 13.9 9.6 5.3 56 4.0 WNW 17 30 9 16 1015.4 - 0.2
27/02:00pm 14.6 11.3 6.4 58 4.0 WNW 13 24 7 13 1015.4 1015.5 0.2
27/01:30pm 14.3 9.1 5.4 55 4.2 NW 22 39 12 21 1015.6 - 0.2
27/01:00pm 14.9 11.5 5.7 54 4.4 NW 13 24 7 13 1015.7 1015.8 0.2
27/12:30pm 15.4 14.4 8.9 65 3.3 NW 4 7 2 4 1016.5 - 0.2
27/12:00pm 14.4 12.9 8.4 67 3.0 W 6 9 3 5 1017.3 1017.4 0.2
27/11:30am 14.4 13.4 8.8 69 2.8 W 4 7 2 4 1017.9 - 0.2
27/11:00am 13.5 13.0 9.4 76 2.1 SSW 2 6 1 3 1018.8 1018.9 0.2
27/10:30am 13.1 12.4 10.1 82 1.6 NE 4 7 2 4 1019.2 - 0.2
27/10:00am 11.0 10.5 9.4 90 0.8 NW 2 4 1 2 1019.5 1019.6 0.0
27/09:30am 10.3 9.5 9.7 96 0.3 NNE 4 7 2 4 1019.6 - 0.0
27/09:00am 8.9 7.4 8.5 97 0.2 N 6 7 3 4 1019.6 1019.7 0.2
27/08:30am 7.6 6.2 7.2 97 0.2 NNW 4 6 2 3 1019.5 - 0.2
27/08:00am 7.2 5.3 6.8 97 0.2 NNE 6 7 3 4 1019.5 1019.6 0.2
27/07:30am 6.9 5.7 6.3 96 0.3 WNW 2 4 1 2 1019.5 - 0.2
27/07:00am 6.8 4.6 6.2 96 0.3 W 7 7 4 4 1019.5 1019.6 0.2
27/06:30am 6.8 3.8 6.2 96 0.3 WNW 11 11 6 6 1019.5 - 0.2
27/06:00am 6.9 4.0 6.5 97 0.2 W 11 13 6 7 1019.4 1019.5 0.2
27/05:30am 6.7 4.2 6.4 98 0.1 WNW 9 11 5 6 1019.6 - 0.2
27/05:00am 6.7 4.2 6.4 98 0.1 W 9 11 5 6 1019.6 1019.7 0.2
27/04:30am 6.6 4.0 6.3 98 0.1 W 9 13 5 7 1019.7 - 0.2
27/04:00am 7.2 4.4 6.9 98 0.1 W 11 15 6 8 1019.8 1019.9 0.2
27/03:30am 6.7 3.8 6.4 98 0.1 WNW 11 13 6 7 1019.7 - 0.2
27/03:00am 5.8 1.9 5.4 97 0.2 WNW 15 17 8 9 1020.1 1020.1 0.2
27/02:30am 7.6 4.9 7.3 98 0.1 WNW 11 15 6 8 1020.3 - 0.2
27/02:00am 8.0 5.8 7.7 98 0.1 W 9 13 5 7 1020.5 1020.5 0.2
27/01:30am 7.8 5.5 7.5 98 0.1 WNW 9 13 5 7 1020.6 - 0.2
27/01:00am 8.1 5.9 7.8 98 0.1 W 9 11 5 6 1020.9 1021.0 0.2
27/12:30am 8.2 6.0 7.9 98 0.1 W 9 11 5 6 1020.8 - 0.2
27/12:00am 8.0 5.8 7.7 98 0.1 WNW 9 11 5 6 1020.9 1021.0 0.2
 
Date/Time
EST
Temp
°C
App
Temp
°C
Dew
Point
Rel
Hum
%
Delta-T
°C
Wind Press
QNH
hPa
Press
MSL
hPa
Rain
since 9 am
mm
Dir
 
Spd
km/h
Gust
km/h
Spd
kts
Gust
kts
26/11:30pm 7.5 5.1 7.2 98 0.1 W 9 13 5 7 1021.1 - 0.0
26/11:00pm 7.8 5.1 7.5 98 0.1 WNW 11 15 6 8 1021.0 1021.1 0.0
26/10:30pm 8.2 6.0 7.9 98 0.1 WNW 9 11 5 6 1021.0 - 0.0
26/10:00pm 8.1 5.5 7.8 98 0.1 W 11 13 6 7 1020.9 1021.0 0.0
26/09:30pm 8.4 6.3 8.1 98 0.1 W 9 11 5 6 1020.7 - 0.0
26/09:00pm 8.6 6.1 8.3 98 0.1 WNW 11 13 6 7 1020.7 1020.8 0.0
26/08:30pm 8.6 6.5 8.2 97 0.2 WNW 9 13 5 7 1020.6 - 0.0
26/08:00pm 9.2 7.3 8.9 98 0.1 W 9 13 5 7 1020.4 1020.4 0.0
26/07:30pm 8.9 6.9 8.5 97 0.2 WNW 9 11 5 6 1020.5 - 0.0
26/07:00pm 9.1 7.1 8.6 97 0.2 WNW 9 13 5 7 1020.5 1020.5 0.0
26/06:30pm 9.4 7.8 8.8 96 0.3 W 7 9 4 5 1020.4 - 0.0
26/06:00pm 10.0 8.5 9.2 95 0.4 WNW 7 7 4 4 1020.1 1020.1 0.0
26/05:30pm 10.6 9.8 9.5 93 0.6 WNW 4 4 2 2 1019.6 - 0.0
26/05:00pm 11.3 10.4 9.4 88 1.0 S 4 4 2 2 1019.4 1019.5 0.0
26/04:30pm 12.4 11.5 10.6 89 0.9 S 6 6 3 3 1019.4 - 0.0
26/04:00pm 12.6 12.1 10.7 88 1.0 SSE 4 6 2 3 1019.1 1019.2 0.0
26/03:30pm 12.8 12.3 10.7 87 1.1 SE 4 7 2 4 1019.0 - 0.0
26/03:00pm 12.8 13.0 10.5 86 1.2 CALM 0 0 0 0 1019.1 1019.2 0.0
26/02:30pm 12.9 13.1 10.4 85 1.3 CALM 0 0 0 0 1019.0 - 0.0
26/02:00pm 12.9 13.0 10.3 84 1.3 CALM 0 0 0 0 1018.8 1018.9 0.0
26/01:30pm 12.9 13.0 10.1 83 1.4 CALM 0 0 0 0 1019.0 - 0.0
26/01:00pm 13.1 12.3 9.7 80 1.7 W 4 6 2 3 1019.1 1019.2 0.0
26/12:30pm 12.9 12.1 9.7 81 1.6 W 4 7 2 4 1019.4 - 0.0
26/12:00pm 12.7 11.9 9.7 82 1.5 W 4 7 2 4 1019.7 1019.8 0.0
26/11:30am 12.8 12.7 10.7 87 1.1 E 2 4 1 2 1020.1 - 0.0
26/11:00am 12.1 11.3 9.7 85 1.2 W 4 7 2 4 1020.5 1020.5 0.0
26/10:30am 10.7 9.4 9.3 91 0.7 WNW 6 7 3 4 1020.5 - 0.0
26/10:00am 9.6 7.6 8.7 94 0.4 WNW 9 11 5 6 1020.4 1020.4 0.0
26/09:30am 9.3 7.7 8.7 96 0.3 WNW 7 9 4 5 1020.3 - 0.0
26/09:00am 8.7 6.7 8.6 99 0.0 WNW 9 11 5 6 1020.2 1020.2 22.0
26/08:30am 8.2 6.1 8.1 99 0.0 WNW 9 11 5 6 1019.8 - 22.0
26/08:00am 6.5 3.6 6.4 99 0.0 WNW 11 13 6 7 1019.8 1019.9 22.0
26/07:30am 5.5 2.0 5.4 99 0.0 WNW 13 13 7 7 1019.7 - 22.0
26/07:00am 6.0 2.6 5.9 99 0.0 WNW 13 15 7 8 1019.4 1019.5 22.0
26/06:30am 6.6 3.7 6.5 99 0.0 WNW 11 13 6 7 1019.3 - 22.0
26/06:00am 6.7 3.8 6.6 99 0.0 NW 11 13 6 7 1019.1 1019.2 22.0
26/05:30am 6.8 3.9 6.7 99 0.0 WNW 11 15 6 8 1019.0 - 22.0
26/05:00am 5.7 2.2 5.6 99 0.0 WNW 13 13 7 7 1018.9 1019.0 22.0
26/04:30am 5.7 2.6 5.4 98 0.1 WNW 11 13 6 7 1018.7 - 22.0
26/04:00am 5.7 3.0 5.4 98 0.1 WNW 9 11 5 6 1018.6 1018.7 21.8
26/03:30am 6.8 4.7 6.5 98 0.1 WNW 7 9 4 5 1018.5 - 21.8
26/03:00am 7.3 5.3 7.0 98 0.1 WNW 7 9 4 5 1018.6 1018.7 21.8
26/02:30am 8.0 5.8 7.7 98 0.1 WNW 9 9 5 5 1018.7 - 21.8
26/02:00am 8.6 6.5 8.3 98 0.1 NW 9 11 5 6 1018.6 1018.7 21.8
26/01:30am 8.9 7.3 8.6 98 0.1 WNW 7 9 4 5 1018.5 - 21.8
26/01:00am 8.8 6.8 8.5 98 0.1 WNW 9 11 5 6 1018.5 1018.6 21.8
26/12:30am 8.8 6.4 8.5 98 0.1 WNW 11 13 6 7 1018.4 - 21.8
26/12:00am 9.1 7.1 8.8 98 0.1 WNW 9 11 5 6 1018.5 1018.6 21.8
 
Date/Time
EST
Temp
°C
App
Temp
°C
Dew
Point
Rel
Hum
%
Delta-T
°C
Wind Press
QNH
hPa
Press
MSL
hPa
Rain
since 9 am
mm
Dir
 
Spd
km/h
Gust
km/h
Spd
kts
Gust
kts
25/11:30pm 9.2 7.7 9.1 99 0.0 WNW 7 9 4 5 1018.7 - 21.8
25/11:00pm 8.7 6.7 8.6 99 0.0 NW 9 11 5 6 1018.7 1018.8 21.8
25/10:30pm 8.4 6.3 8.1 98 0.1 WNW 9 13 5 7 1018.6 - 21.8
25/10:00pm 8.2 6.4 7.9 98 0.1 WNW 7 9 4 5 1018.6 1018.7 21.8
25/09:30pm 8.4 6.2 8.0 97 0.2 WNW 9 11 5 6 1018.4 - 21.8
25/09:00pm 9.0 7.5 8.6 97 0.2 WNW 6 7 3 4 1018.4 1018.5 21.8
25/08:30pm 9.3 7.9 9.0 98 0.1 N 6 7 3 4 1018.2 - 21.8

Other Formats:

Comma delimited format used in spreadsheet applications
http://www.bom.gov.au/fwo/IDT60801/IDT60801.94987.axf

JavaScript Object Notation format (JSON) in row-major order
http://www.bom.gov.au/fwo/IDT60801/IDT60801.94987.json